Dickinson, ND

10:14 PM MDT on August 25, 2016 (GMT -0600)
Southview | | Change Station

Elev 2434 ft 46.86 °N, 102.78 °W | Updated 3 minutes ago

Clear
Clear
53.1 °F
Feels Like 53.1 °F
N
0.0
Wind Variable Wind from West

Today
High -- | Low -- °F
--% Chance of Precip.
Yesterday
High -- | Low -- °F
Precip. -- in
Pressure 30.14 in
Visibility 10.0 miles
Clouds Clear
Dew Point 40 °F
Humidity 62%
Rainfall 0.00 in
Snow Depth Not available.
6:02 AM 7:42 PM
Last Quarter, 39% visible
METAR KDIK 260356Z AUTO 23004KT 10SM CLR 11/04 A3013 RMK AO2 SLP206 T01110044
Pressure 30.14 in
Visibility 10.0 miles
Clouds Clear
Dew Point 40 °F
Humidity 62%
Rainfall 0.00 in
Snow Depth Not available.
6:02 AM 7:42 PM
Last Quarter, 39% visible
METAR KDIK 260356Z AUTO 23004KT 10SM CLR 11/04 A3013 RMK AO2 SLP206 T01110044
A tropical disturbance pushing toward the Bahamas, is expected to develop into a tropical depression or storm, and will likely target Florida and the Gulf Coast this weekend into next week.

Right now, the disturbance remains a broad area of low pressure pushing through the Dominican Republic and Haiti, headed toward the southeast Bahamas. Rainfall totals over 3 inches (with locally higher amounts) are expected in HispaƱiola, particularly over elevated terrain.

10-Day Weather Forecast

Almanac

Astronomy

Aug. 25, 2016 Rise Set
Actual Time
Civil Twilight
Nautical Twilight
Astronomical Twilight
Moon
Length of Visible Light
Length of Day
Tomorrow will be .
, % of the Moon is Illuminated

Today's Extremes

State Highs State Lows

Community

WunderPhotos

Upload Photos

1,935,057 photos uploaded!

WunderBlog® & News

Nearby

Air Quality

  Air Quality AQ Index Pollutant
Not available.

Snow Depth

Station Depth Elevation

Earthquake Activity

City Distance Mag. Time & Date
Minimum magnitude displayed is 2.5.

Coastal Water Temperatures

Place Temperature

Stations

Nearby Weather Stations

Station Location Temp. Windchill Dew Point Humidity Wind Precip. Elev Updated Type
                   

Watches & Warnings

There are currently no watches in effect.